Ana Sayfa
METAR-TAF:

METAR-TAF

Havaalanları :

Zinder, Nijer

Enlem: 13-47N, Boylam: 008-59E, yükseklik: 452 m

Güncel hava durumu gözlemi

Rapor saat 21:00 UTC de 5 saat ve 33 dakika önce yapıldı.
Sakin rüzgar
Sıcaklık 21°C
Nem 25%
Basınç 1014 hPa
Görüş mesafesi: 8000 m

METAR: DRZR 102100Z 00000KT 8000 NSC 21/00 Q1014

Saat: 03:33 (02:33 UTC)

Tahmin

Rapor saat 23:00 UTC de 3 saat ve 33 dakika önce yapıldı.
Ayın 11'si saat 00 UTC'den ayın 11'si saat 24 UTC'ye kadar geçerli Tahmin
Rüzgar doğudan 8 kt
Görüş mesafesi: 6000 m
Geçici
ayın 11'si saat 06 UTC'den ayın 11'si saat 09 UTC'ye kadar
Görüş mesafesi: 3500 m
yaygın toz

TAF: DRZR 102300Z 1100/1124 08008KT 6000 NSC TEMPO 1106/1109 3500 DU

4.000'den fazla havaalanı için hava durumu gözlemleri ve tahminleri (METAR ve TAF raporları).

Kullanılabilir istasyonlar harita üzerinde sarı ve kırmızı noktalarla gösterilir.

İstasyonun adını görmek için fareyi noktanın üzerinde gezdirin.

Sonrasında hava gözlem ve tahminlerini görmek için tıklayın.

Haritayı değiştirmek için: yaklaştırmak için siyah artı işaretli yeşil düğmeye ve uzaklaştırmak için de eksi işaretli düğmeye hızla tıklayın; bitişik haritalar için yeşil okları kullanın.


METAR-TAF: